sensor_id;sensor_type;location;lat;lon;timestamp;pressure;altitude;pressure_sealevel;temperature;humidity
49723;BME280;43484;43.608;1.458;2023-08-20T00:00:18;99945.31;;;27.91;100.00
49723;BME280;43484;43.608;1.458;2023-08-20T00:02:46;99956.13;;;27.84;100.00
49723;BME280;43484;43.608;1.458;2023-08-20T00:05:14;99945.38;;;27.88;100.00
49723;BME280;43484;43.608;1.458;2023-08-20T00:07:41;99949.53;;;27.95;100.00
49723;BME280;43484;43.608;1.458;2023-08-20T00:10:08;99943.25;;;27.99;100.00
49723;BME280;43484;43.608;1.458;2023-08-20T00:12:35;99946.91;;;27.95;100.00
49723;BME280;43484;43.608;1.458;2023-08-20T00:15:03;99952.66;;;27.82;100.00
49723;BME280;43484;43.608;1.458;2023-08-20T00:17:38;99945.75;;;27.79;100.00
49723;BME280;43484;43.608;1.458;2023-08-20T00:20:06;99949.88;;;27.86;100.00
49723;BME280;43484;43.608;1.458;2023-08-20T00:22:40;99950.03;;;27.82;100.00
49723;BME280;43484;43.608;1.458;2023-08-20T00:25:09;99950.78;;;27.85;100.00
49723;BME280;43484;43.608;1.458;2023-08-20T00:27:35;99952.13;;;27.74;100.00
49723;BME280;43484;43.608;1.458;2023-08-20T00:30:03;99952.06;;;27.75;100.00
49723;BME280;43484;43.608;1.458;2023-08-20T00:32:30;99944.97;;;27.77;100.00
49723;BME280;43484;43.608;1.458;2023-08-20T00:34:57;99944.91;;;27.79;100.00
49723;BME280;43484;43.608;1.458;2023-08-20T00:37:23;99945.97;;;27.73;100.00
49723;BME280;43484;43.608;1.458;2023-08-20T00:39:50;99950.81;;;27.62;100.00
49723;BME280;43484;43.608;1.458;2023-08-20T00:42:16;99939.66;;;27.56;100.00
49723;BME280;43484;43.608;1.458;2023-08-20T00:44:43;99942.84;;;27.64;100.00
49723;BME280;43484;43.608;1.458;2023-08-20T00:47:13;99947.03;;;27.69;100.00
49723;BME280;43484;43.608;1.458;2023-08-20T00:49:40;99943.84;;;27.61;100.00
49723;BME280;43484;43.608;1.458;2023-08-20T00:52:12;99947.38;;;27.60;100.00
49723;BME280;43484;43.608;1.458;2023-08-20T00:54:40;99940.53;;;27.56;100.00
49723;BME280;43484;43.608;1.458;2023-08-20T00:57:08;99938.97;;;27.51;100.00
49723;BME280;43484;43.608;1.458;2023-08-20T00:59:35;99945.88;;;27.53;100.00
49723;BME280;43484;43.608;1.458;2023-08-20T01:02:02;99947.06;;;27.46;100.00
49723;BME280;43484;43.608;1.458;2023-08-20T01:04:29;99938.22;;;27.47;100.00
49723;BME280;43484;43.608;1.458;2023-08-20T01:10:06;99938.34;;;27.44;100.00
49723;BME280;43484;43.608;1.458;2023-08-20T01:12:34;99943.50;;;27.47;100.00
49723;BME280;43484;43.608;1.458;2023-08-20T01:15:02;99944.56;;;27.42;100.00
49723;BME280;43484;43.608;1.458;2023-08-20T01:17:29;99948.19;;;27.39;100.00
49723;BME280;43484;43.608;1.458;2023-08-20T01:19:55;99942.75;;;27.44;100.00
49723;BME280;43484;43.608;1.458;2023-08-20T01:25:26;99942.94;;;27.39;100.00
49723;BME280;43484;43.608;1.458;2023-08-20T01:30:24;99941.72;;;27.48;100.00
49723;BME280;43484;43.608;1.458;2023-08-20T01:32:53;99942.44;;;27.28;100.00
49723;BME280;43484;43.608;1.458;2023-08-20T01:35:26;99946.97;;;27.23;100.00
49723;BME280;43484;43.608;1.458;2023-08-20T01:37:53;99944.34;;;27.23;100.00
49723;BME280;43484;43.608;1.458;2023-08-20T01:40:20;99949.56;;;27.25;100.00
49723;BME280;43484;43.608;1.458;2023-08-20T01:42:46;99940.19;;;27.17;100.00
49723;BME280;43484;43.608;1.458;2023-08-20T01:45:13;99952.78;;;27.08;100.00
49723;BME280;43484;43.608;1.458;2023-08-20T01:47:39;99949.28;;;27.09;100.00
49723;BME280;43484;43.608;1.458;2023-08-20T01:50:06;99955.44;;;27.08;100.00
49723;BME280;43484;43.608;1.458;2023-08-20T01:52:33;99958.28;;;27.02;100.00
49723;BME280;43484;43.608;1.458;2023-08-20T01:55:00;99949.59;;;27.00;100.00
49723;BME280;43484;43.608;1.458;2023-08-20T01:57:26;99953.25;;;26.96;100.00
49723;BME280;43484;43.608;1.458;2023-08-20T01:59:53;99946.44;;;26.90;100.00
49723;BME280;43484;43.608;1.458;2023-08-20T02:02:20;99950.66;;;26.94;100.00
49723;BME280;43484;43.608;1.458;2023-08-20T02:04:47;99958.53;;;26.96;100.00
49723;BME280;43484;43.608;1.458;2023-08-20T02:07:14;99953.63;;;26.85;100.00
49723;BME280;43484;43.608;1.458;2023-08-20T02:09:41;99950.28;;;26.80;100.00
49723;BME280;43484;43.608;1.458;2023-08-20T02:12:07;99948.63;;;26.78;100.00
49723;BME280;43484;43.608;1.458;2023-08-20T02:14:35;99947.56;;;26.83;100.00
49723;BME280;43484;43.608;1.458;2023-08-20T02:17:02;99943.31;;;26.79;100.00
49723;BME280;43484;43.608;1.458;2023-08-20T02:19:29;99947.84;;;26.76;100.00
49723;BME280;43484;43.608;1.458;2023-08-20T02:21:56;99944.22;;;26.78;100.00
49723;BME280;43484;43.608;1.458;2023-08-20T02:24:22;99948.78;;;26.73;100.00
49723;BME280;43484;43.608;1.458;2023-08-20T02:26:49;99940.91;;;26.73;100.00
49723;BME280;43484;43.608;1.458;2023-08-20T02:29:16;99935.59;;;26.75;100.00
49723;BME280;43484;43.608;1.458;2023-08-20T02:31:42;99939.28;;;26.69;100.00
49723;BME280;43484;43.608;1.458;2023-08-20T02:34:09;99932.44;;;26.64;100.00
49723;BME280;43484;43.608;1.458;2023-08-20T02:36:36;99940.31;;;26.64;100.00
49723;BME280;43484;43.608;1.458;2023-08-20T02:39:02;99944.00;;;26.58;100.00
49723;BME280;43484;43.608;1.458;2023-08-20T02:41:31;99940.63;;;26.55;100.00
49723;BME280;43484;43.608;1.458;2023-08-20T02:43:57;99942.44;;;26.53;100.00
49723;BME280;43484;43.608;1.458;2023-08-20T02:46:24;99945.06;;;26.53;100.00
49723;BME280;43484;43.608;1.458;2023-08-20T02:48:51;99937.47;;;26.45;100.00
49723;BME280;43484;43.608;1.458;2023-08-20T02:51:17;99938.34;;;26.44;100.00
49723;BME280;43484;43.608;1.458;2023-08-20T02:53:44;99939.97;;;26.48;100.00
49723;BME280;43484;43.608;1.458;2023-08-20T02:56:10;99939.31;;;26.42;100.00
49723;BME280;43484;43.608;1.458;2023-08-20T02:58:37;99937.47;;;26.45;100.00
49723;BME280;43484;43.608;1.458;2023-08-20T03:01:03;99934.00;;;26.43;100.00
49723;BME280;43484;43.608;1.458;2023-08-20T03:03:30;99935.81;;;26.41;100.00
49723;BME280;43484;43.608;1.458;2023-08-20T03:05:57;99933.41;;;26.35;100.00
49723;BME280;43484;43.608;1.458;2023-08-20T03:08:23;99923.06;;;26.31;100.00
49723;BME280;43484;43.608;1.458;2023-08-20T03:10:50;99931.03;;;26.28;100.00
49723;BME280;43484;43.608;1.458;2023-08-20T03:13:16;99934.56;;;26.27;100.00
49723;BME280;43484;43.608;1.458;2023-08-20T03:15:44;99928.50;;;26.25;100.00
49723;BME280;43484;43.608;1.458;2023-08-20T03:18:11;99925.88;;;26.25;100.00
49723;BME280;43484;43.608;1.458;2023-08-20T03:20:37;99923.16;;;26.28;100.00
49723;BME280;43484;43.608;1.458;2023-08-20T03:23:04;99936.44;;;26.23;100.00
49723;BME280;43484;43.608;1.458;2023-08-20T03:25:31;99934.69;;;26.24;100.00
49723;BME280;43484;43.608;1.458;2023-08-20T03:27:57;99932.94;;;26.23;100.00
49723;BME280;43484;43.608;1.458;2023-08-20T03:30:24;99936.50;;;26.22;100.00
49723;BME280;43484;43.608;1.458;2023-08-20T03:32:50;99931.84;;;26.30;100.00
49723;BME280;43484;43.608;1.458;2023-08-20T03:35:17;99937.34;;;26.22;100.00
49723;BME280;43484;43.608;1.458;2023-08-20T03:37:44;99926.16;;;26.17;100.00
49723;BME280;43484;43.608;1.458;2023-08-20T03:40:11;99922.22;;;26.03;100.00
49723;BME280;43484;43.608;1.458;2023-08-20T03:42:37;99922.94;;;26.08;100.00
49723;BME280;43484;43.608;1.458;2023-08-20T03:45:04;99921.41;;;26.01;100.00
49723;BME280;43484;43.608;1.458;2023-08-20T03:47:31;99914.53;;;25.96;100.00
49723;BME280;43484;43.608;1.458;2023-08-20T03:49:58;99919.75;;;25.96;100.00
49723;BME280;43484;43.608;1.458;2023-08-20T03:52:25;99910.38;;;25.89;100.00
49723;BME280;43484;43.608;1.458;2023-08-20T03:54:51;99918.06;;;25.95;100.00
49723;BME280;43484;43.608;1.458;2023-08-20T03:57:18;99920.91;;;25.88;100.00
49723;BME280;43484;43.608;1.458;2023-08-20T03:59:45;99914.72;;;25.90;100.00
49723;BME280;43484;43.608;1.458;2023-08-20T04:02:11;99918.28;;;25.88;100.00
49723;BME280;43484;43.608;1.458;2023-08-20T04:04:38;99921.06;;;25.83;100.00
49723;BME280;43484;43.608;1.458;2023-08-20T04:07:05;99913.09;;;25.86;100.00
49723;BME280;43484;43.608;1.458;2023-08-20T04:09:32;99915.72;;;25.86;100.00
49723;BME280;43484;43.608;1.458;2023-08-20T04:12:00;99921.00;;;25.85;100.00
49723;BME280;43484;43.608;1.458;2023-08-20T04:14:26;99917.56;;;25.83;100.00
49723;BME280;43484;43.608;1.458;2023-08-20T04:16:53;99930.66;;;25.84;100.00
49723;BME280;43484;43.608;1.458;2023-08-20T04:19:19;99929.78;;;25.84;100.00
49723;BME280;43484;43.608;1.458;2023-08-20T04:21:46;99936.00;;;25.81;100.00
49723;BME280;43484;43.608;1.458;2023-08-20T04:24:13;99926.59;;;25.74;100.00
49723;BME280;43484;43.608;1.458;2023-08-20T04:26:39;99931.84;;;25.74;100.00
49723;BME280;43484;43.608;1.458;2023-08-20T04:29:06;99940.75;;;25.69;100.00
49723;BME280;43484;43.608;1.458;2023-08-20T04:31:32;99943.34;;;25.70;100.00
49723;BME280;43484;43.608;1.458;2023-08-20T04:33:59;99940.94;;;25.63;100.00
49723;BME280;43484;43.608;1.458;2023-08-20T04:36:26;99938.25;;;25.64;100.00
49723;BME280;43484;43.608;1.458;2023-08-20T04:38:52;99941.25;;;25.52;100.00
49723;BME280;43484;43.608;1.458;2023-08-20T04:41:19;99941.16;;;25.55;100.00
49723;BME280;43484;43.608;1.458;2023-08-20T04:43:45;99942.94;;;25.55;100.00
49723;BME280;43484;43.608;1.458;2023-08-20T04:46:12;99937.53;;;25.59;100.00
49723;BME280;43484;43.608;1.458;2023-08-20T04:48:39;99950.44;;;25.67;100.00
49723;BME280;43484;43.608;1.458;2023-08-20T04:51:05;99950.63;;;25.61;100.00
49723;BME280;43484;43.608;1.458;2023-08-20T04:53:33;99950.84;;;25.53;100.00
49723;BME280;43484;43.608;1.458;2023-08-20T04:56:00;99950.00;;;25.53;100.00
49723;BME280;43484;43.608;1.458;2023-08-20T04:58:26;99950.84;;;25.53;100.00
49723;BME280;43484;43.608;1.458;2023-08-20T05:00:53;99944.59;;;25.57;100.00
49723;BME280;43484;43.608;1.458;2023-08-20T05:03:20;99954.28;;;25.55;100.00
49723;BME280;43484;43.608;1.458;2023-08-20T05:05:50;99946.50;;;25.52;100.00
49723;BME280;43484;43.608;1.458;2023-08-20T05:08:17;99946.50;;;25.52;100.00
49723;BME280;43484;43.608;1.458;2023-08-20T05:10:44;99948.28;;;25.50;100.00
49723;BME280;43484;43.608;1.458;2023-08-20T05:13:10;99948.34;;;25.49;100.00
49723;BME280;43484;43.608;1.458;2023-08-20T05:15:37;99956.16;;;25.52;100.00
49723;BME280;43484;43.608;1.458;2023-08-20T05:18:04;99959.34;;;25.61;100.00
49723;BME280;43484;43.608;1.458;2023-08-20T05:20:31;99967.28;;;25.60;100.00
49723;BME280;43484;43.608;1.458;2023-08-20T05:22:57;99970.78;;;25.59;100.00
49723;BME280;43484;43.608;1.458;2023-08-20T05:25:24;99966.50;;;25.56;100.00
49723;BME280;43484;43.608;1.458;2023-08-20T05:27:51;99973.50;;;25.56;100.00
49723;BME280;43484;43.608;1.458;2023-08-20T05:30:17;99973.56;;;25.54;100.00
49723;BME280;43484;43.608;1.458;2023-08-20T05:32:44;99979.53;;;25.59;100.00
49723;BME280;43484;43.608;1.458;2023-08-20T05:35:10;99979.66;;;25.55;100.00
49723;BME280;43484;43.608;1.458;2023-08-20T05:37:37;99984.91;;;25.55;100.00
49723;BME280;43484;43.608;1.458;2023-08-20T05:40:04;99978.81;;;25.54;100.00
49723;BME280;43484;43.608;1.458;2023-08-20T05:42:31;99983.03;;;25.60;100.00
49723;BME280;43484;43.608;1.458;2023-08-20T05:44:57;99981.38;;;25.56;100.00
49723;BME280;43484;43.608;1.458;2023-08-20T05:47:24;99983.94;;;25.57;100.00
49723;BME280;43484;43.608;1.458;2023-08-20T05:49:50;99985.66;;;25.60;100.00
49723;BME280;43484;43.608;1.458;2023-08-20T05:52:17;99985.75;;;25.57;100.00
49723;BME280;43484;43.608;1.458;2023-08-20T05:54:44;99996.97;;;25.60;100.00
49723;BME280;43484;43.608;1.458;2023-08-20T05:57:11;99991.72;;;25.60;100.00
49723;BME280;43484;43.608;1.458;2023-08-20T05:59:37;99995.84;;;25.69;100.00
49723;BME280;43484;43.608;1.458;2023-08-20T06:02:04;100001.09;;;25.70;100.00
49723;BME280;43484;43.608;1.458;2023-08-20T06:04:31;100008.97;;;25.69;100.00
49723;BME280;43484;43.608;1.458;2023-08-20T06:06:58;99997.78;;;25.62;100.00
49723;BME280;43484;43.608;1.458;2023-08-20T06:09:25;99997.91;;;25.59;100.00
49723;BME280;43484;43.608;1.458;2023-08-20T06:11:51;99997.78;;;25.62;100.00
49723;BME280;43484;43.608;1.458;2023-08-20T06:14:18;100005.63;;;25.64;100.00
49723;BME280;43484;43.608;1.458;2023-08-20T06:16:44;100003.91;;;25.63;100.00
49723;BME280;43484;43.608;1.458;2023-08-20T06:19:11;100005.63;;;25.64;100.00
49723;BME280;43484;43.608;1.458;2023-08-20T06:21:38;100007.13;;;25.72;100.00
49723;BME280;43484;43.608;1.458;2023-08-20T06:24:05;100007.41;;;25.63;100.00
49723;BME280;43484;43.608;1.458;2023-08-20T06:26:32;100000.31;;;25.67;100.00
49723;BME280;43484;43.608;1.458;2023-08-20T06:28:58;100002.16;;;25.63;100.00
49723;BME280;43484;43.608;1.458;2023-08-20T06:31:25;100007.28;;;25.68;100.00
49723;BME280;43484;43.608;1.458;2023-08-20T06:33:52;100009.03;;;25.67;100.00
49723;BME280;43484;43.608;1.458;2023-08-20T06:36:18;100012.50;;;25.68;100.00
49723;BME280;43484;43.608;1.458;2023-08-20T06:38:46;100013.25;;;25.73;100.00
49723;BME280;43484;43.608;1.458;2023-08-20T06:41:13;100027.81;;;25.83;100.00
49723;BME280;43484;43.608;1.458;2023-08-20T06:43:40;100035.28;;;25.96;100.00
49723;BME280;43484;43.608;1.458;2023-08-20T06:46:06;100043.31;;;25.92;100.00
49723;BME280;43484;43.608;1.458;2023-08-20T06:48:33;100045.94;;;25.92;100.00
49723;BME280;43484;43.608;1.458;2023-08-20T06:51:08;100061.81;;;25.87;100.00
49723;BME280;43484;43.608;1.458;2023-08-20T06:53:34;100055.31;;;25.99;100.00
49723;BME280;43484;43.608;1.458;2023-08-20T06:56:01;100070.00;;;25.77;100.00
49723;BME280;43484;43.608;1.458;2023-08-20T06:58:27;100067.56;;;26.00;100.00
49723;BME280;43484;43.608;1.458;2023-08-20T07:00:54;100082.56;;;25.96;100.00
49723;BME280;43484;43.608;1.458;2023-08-20T07:03:22;100074.53;;;25.72;100.00
49723;BME280;43484;43.608;1.458;2023-08-20T07:05:48;100071.94;;;25.70;100.00
49723;BME280;43484;43.608;1.458;2023-08-20T07:08:15;100072.19;;;25.92;100.00
49723;BME280;43484;43.608;1.458;2023-08-20T07:10:41;100065.75;;;26.04;100.00
49723;BME280;43484;43.608;1.458;2023-08-20T07:13:08;100082.75;;;25.89;100.00
49723;BME280;43484;43.608;1.458;2023-08-20T07:15:34;100078.88;;;26.04;100.00
49723;BME280;43484;43.608;1.458;2023-08-20T07:18:01;100087.13;;;26.21;100.00
49723;BME280;43484;43.608;1.458;2023-08-20T07:20:28;100094.34;;;26.13;100.00
49723;BME280;43484;43.608;1.458;2023-08-20T07:22:54;100097.38;;;25.97;100.00
49723;BME280;43484;43.608;1.458;2023-08-20T07:25:23;100084.81;;;26.10;100.00
49723;BME280;43484;43.608;1.458;2023-08-20T07:27:50;100085.84;;;26.05;100.00
49723;BME280;43484;43.608;1.458;2023-08-20T07:30:17;100090.63;;;26.20;100.00
49723;BME280;43484;43.608;1.458;2023-08-20T07:32:44;100089.47;;;26.30;100.00
49723;BME280;43484;43.608;1.458;2023-08-20T07:35:10;100099.91;;;26.31;100.00
49723;BME280;43484;43.608;1.458;2023-08-20T07:37:37;100105.69;;;26.44;100.00
49723;BME280;43484;43.608;1.458;2023-08-20T07:40:04;100109.13;;;26.46;100.00
49723;BME280;43484;43.608;1.458;2023-08-20T07:42:31;100111.81;;;26.43;100.00
49723;BME280;43484;43.608;1.458;2023-08-20T07:44:58;100118.25;;;26.62;100.00
49723;BME280;43484;43.608;1.458;2023-08-20T07:47:24;100120.03;;;26.60;100.00
49723;BME280;43484;43.608;1.458;2023-08-20T07:49:51;100120.03;;;26.60;100.00
49723;BME280;43484;43.608;1.458;2023-08-20T07:52:18;100120.56;;;26.72;100.00
49723;BME280;43484;43.608;1.458;2023-08-20T07:54:44;100128.09;;;26.83;100.00
49723;BME280;43484;43.608;1.458;2023-08-20T07:57:11;100131.50;;;26.86;100.00
49723;BME280;43484;43.608;1.458;2023-08-20T07:59:38;100138.13;;;26.98;100.00
49723;BME280;43484;43.608;1.458;2023-08-20T08:02:05;100134.22;;;27.11;100.00
49723;BME280;43484;43.608;1.458;2023-08-20T08:04:33;100137.28;;;27.24;100.00
49723;BME280;43484;43.608;1.458;2023-08-20T08:07:00;100142.81;;;27.16;100.00
49723;BME280;43484;43.608;1.458;2023-08-20T08:09:29;100141.94;;;27.15;100.00
49723;BME280;43484;43.608;1.458;2023-08-20T08:11:56;100144.16;;;27.29;100.00
49723;BME280;43484;43.608;1.458;2023-08-20T08:14:23;100144.63;;;27.40;100.00
49723;BME280;43484;43.608;1.458;2023-08-20T08:16:50;100141.94;;;27.42;100.00
49723;BME280;43484;43.608;1.458;2023-08-20T08:19:17;100142.50;;;27.51;100.00
49723;BME280;43484;43.608;1.458;2023-08-20T08:21:44;100142.59;;;27.48;100.00
49723;BME280;43484;43.608;1.458;2023-08-20T08:24:12;100148.47;;;27.56;100.00
49723;BME280;43484;43.608;1.458;2023-08-20T08:26:39;100143.56;;;27.70;100.00
49723;BME280;43484;43.608;1.458;2023-08-20T08:29:07;100138.09;;;27.76;100.00
49723;BME280;43484;43.608;1.458;2023-08-20T08:31:34;100133.47;;;27.83;100.00
49723;BME280;43484;43.608;1.458;2023-08-20T08:34:01;100145.50;;;27.90;100.00
49723;BME280;43484;43.608;1.458;2023-08-20T08:36:29;100126.94;;;27.94;100.00
49723;BME280;43484;43.608;1.458;2023-08-20T08:38:56;100137.34;;;27.97;100.00
49723;BME280;43484;43.608;1.458;2023-08-20T08:41:22;100134.22;;;28.11;100.00
49723;BME280;43484;43.608;1.458;2023-08-20T08:43:53;100134.28;;;28.09;100.00
49723;BME280;43484;43.608;1.458;2023-08-20T08:46:22;100133.28;;;28.12;100.00
49723;BME280;43484;43.608;1.458;2023-08-20T08:48:51;100142.63;;;28.20;100.00
49723;BME280;43484;43.608;1.458;2023-08-20T08:51:19;100134.44;;;28.28;100.00
49723;BME280;43484;43.608;1.458;2023-08-20T08:53:46;100135.06;;;28.34;100.00
49723;BME280;43484;43.608;1.458;2023-08-20T08:56:12;100131.91;;;28.48;100.00
49723;BME280;43484;43.608;1.458;2023-08-20T08:58:39;100130.97;;;28.49;100.00
49723;BME280;43484;43.608;1.458;2023-08-20T09:01:06;100130.22;;;28.46;100.00
49723;BME280;43484;43.608;1.458;2023-08-20T09:03:32;100127.03;;;28.61;100.00
49723;BME280;43484;43.608;1.458;2023-08-20T09:06:00;100128.72;;;28.63;100.00
49723;BME280;43484;43.608;1.458;2023-08-20T09:08:30;100134.59;;;28.70;100.00
49723;BME280;43484;43.608;1.458;2023-08-20T09:10:59;100129.19;;;28.73;100.00
49723;BME280;43484;43.608;1.458;2023-08-20T09:15:59;100120.47;;;28.92;100.00
49723;BME280;43484;43.608;1.458;2023-08-20T09:18:26;100128.63;;;29.08;100.00
49723;BME280;43484;43.608;1.458;2023-08-20T09:20:53;100130.25;;;29.12;100.00
49723;BME280;43484;43.608;1.458;2023-08-20T09:23:19;100129.94;;;29.19;100.00
49723;BME280;43484;43.608;1.458;2023-08-20T09:25:46;100130.28;;;29.32;100.00
49723;BME280;43484;43.608;1.458;2023-08-20T09:28:13;100129.34;;;29.33;100.00
49723;BME280;43484;43.608;1.458;2023-08-20T09:30:40;100131.53;;;29.43;100.00
49723;BME280;43484;43.608;1.458;2023-08-20T09:33:20;100125.00;;;29.52;100.00
49723;BME280;43484;43.608;1.458;2023-08-20T09:35:50;100118.50;;;29.59;100.00
49723;BME280;43484;43.608;1.458;2023-08-20T09:38:21;100118.66;;;29.56;100.00
49723;BME280;43484;43.608;1.458;2023-08-20T09:40:49;100123.13;;;29.54;100.00
49723;BME280;43484;43.608;1.458;2023-08-20T09:43:16;100121.81;;;29.64;100.00
49723;BME280;43484;43.608;1.458;2023-08-20T09:45:43;100115.94;;;29.58;100.00
49723;BME280;43484;43.608;1.458;2023-08-20T09:48:17;100116.38;;;29.69;100.00
49723;BME280;43484;43.608;1.458;2023-08-20T09:50:49;100111.88;;;29.91;100.00
49723;BME280;43484;43.608;1.458;2023-08-20T09:53:42;100109.72;;;29.99;100.00
49723;BME280;43484;43.608;1.458;2023-08-20T09:56:30;100121.69;;;30.07;100.00
49723;BME280;43484;43.608;1.458;2023-08-20T09:58:58;100115.84;;;29.99;100.00
49723;BME280;43484;43.608;1.458;2023-08-20T10:01:26;100117.81;;;29.96;100.00
49723;BME280;43484;43.608;1.458;2023-08-20T10:03:54;100121.13;;;29.99;100.00
49723;BME280;43484;43.608;1.458;2023-08-20T10:06:21;100111.69;;;30.14;100.00
49723;BME280;43484;43.608;1.458;2023-08-20T10:08:48;100118.00;;;30.30;100.00
49723;BME280;43484;43.608;1.458;2023-08-20T10:11:16;100113.41;;;30.33;100.00
49723;BME280;43484;43.608;1.458;2023-08-20T10:13:44;100124.63;;;30.38;100.00
49723;BME280;43484;43.608;1.458;2023-08-20T10:16:13;100106.84;;;30.42;100.00
49723;BME280;43484;43.608;1.458;2023-08-20T10:18:40;100110.13;;;30.65;100.00
49723;BME280;43484;43.608;1.458;2023-08-20T10:21:07;100107.53;;;30.64;100.00
49723;BME280;43484;43.608;1.458;2023-08-20T10:23:36;100103.69;;;30.71;100.00
49723;BME280;43484;43.608;1.458;2023-08-20T10:26:08;100099.06;;;30.74;100.00
49723;BME280;43484;43.608;1.458;2023-08-20T10:28:40;100095.16;;;30.83;100.00
49723;BME280;43484;43.608;1.458;2023-08-20T10:31:11;100096.97;;;30.83;100.00
49723;BME280;43484;43.608;1.458;2023-08-20T10:33:54;100094.56;;;30.77;100.00
49723;BME280;43484;43.608;1.458;2023-08-20T10:36:22;100100.88;;;30.74;100.00
49723;BME280;43484;43.608;1.458;2023-08-20T10:38:52;100093.66;;;30.78;100.00
49723;BME280;43484;43.608;1.458;2023-08-20T10:41:27;100093.13;;;30.88;100.00
49723;BME280;43484;43.608;1.458;2023-08-20T10:43:58;100090.22;;;30.94;100.00
49723;BME280;43484;43.608;1.458;2023-08-20T10:46:28;100087.72;;;30.91;100.00
49723;BME280;43484;43.608;1.458;2023-08-20T10:48:59;100088.34;;;30.96;100.00
49723;BME280;43484;43.608;1.458;2023-08-20T10:56:48;100079.78;;;31.25;100.00
49723;BME280;43484;43.608;1.458;2023-08-20T10:59:23;100077.81;;;31.29;100.00
49723;BME280;43484;43.608;1.458;2023-08-20T11:01:53;100073.09;;;31.35;100.00
49723;BME280;43484;43.608;1.458;2023-08-20T11:04:22;100074.50;;;31.42;100.00
49723;BME280;43484;43.608;1.458;2023-08-20T11:06:52;100074.84;;;31.36;100.00
49723;BME280;43484;43.608;1.458;2023-08-20T11:09:25;100070.38;;;31.37;100.00
49723;BME280;43484;43.608;1.458;2023-08-20T11:11:52;100077.13;;;31.59;100.00
49723;BME280;43484;43.608;1.458;2023-08-20T11:14:20;100058.66;;;31.75;100.00
49723;BME280;43484;43.608;1.458;2023-08-20T11:16:48;100062.91;;;31.77;100.00
49723;BME280;43484;43.608;1.458;2023-08-20T11:19:20;100067.06;;;31.66;100.00
49723;BME280;43484;43.608;1.458;2023-08-20T11:21:48;100068.84;;;31.65;100.00
49723;BME280;43484;43.608;1.458;2023-08-20T11:24:14;100068.63;;;31.70;100.00
49723;BME280;43484;43.608;1.458;2023-08-20T11:26:43;100054.19;;;31.75;100.00
49723;BME280;43484;43.608;1.458;2023-08-20T11:29:13;100052.19;;;31.96;100.00
49723;BME280;43484;43.608;1.458;2023-08-20T11:31:41;100051.78;;;32.04;100.00
49723;BME280;43484;43.608;1.458;2023-08-20T11:34:07;100049.81;;;32.23;100.00
49723;BME280;43484;43.608;1.458;2023-08-20T11:36:35;100049.75;;;32.24;100.00
49723;BME280;43484;43.608;1.458;2023-08-20T11:39:02;100044.88;;;32.48;100.00
49723;BME280;43484;43.608;1.458;2023-08-20T11:41:29;100050.59;;;32.56;100.00
49723;BME280;43484;43.608;1.458;2023-08-20T11:43:56;100040.84;;;32.56;100.00
49723;BME280;43484;43.608;1.458;2023-08-20T11:46:24;100049.69;;;32.41;100.00
49723;BME280;43484;43.608;1.458;2023-08-20T11:49:04;100047.91;;;32.42;100.00
49723;BME280;43484;43.608;1.458;2023-08-20T11:54:11;100039.94;;;32.42;100.00
49723;BME280;43484;43.608;1.458;2023-08-20T11:56:46;100035.63;;;32.55;100.00
49723;BME280;43484;43.608;1.458;2023-08-20T11:59:14;100036.34;;;32.43;100.00
49723;BME280;43484;43.608;1.458;2023-08-20T12:01:41;100039.16;;;32.40;100.00
49723;BME280;43484;43.608;1.458;2023-08-20T12:04:09;100033.91;;;32.38;100.00
49723;BME280;43484;43.608;1.458;2023-08-20T12:06:37;100029.81;;;32.33;100.00
49723;BME280;43484;43.608;1.458;2023-08-20T12:09:23;100035.47;;;32.42;100.00
49723;BME280;43484;43.608;1.458;2023-08-20T12:11:51;100036.50;;;32.55;100.00
49723;BME280;43484;43.608;1.458;2023-08-20T12:14:19;100029.78;;;32.64;100.00
49723;BME280;43484;43.608;1.458;2023-08-20T12:16:46;100026.63;;;32.73;100.00
49723;BME280;43484;43.608;1.458;2023-08-20T12:19:13;100026.25;;;32.79;100.00
49723;BME280;43484;43.608;1.458;2023-08-20T12:21:40;100029.75;;;32.79;100.00
49723;BME280;43484;43.608;1.458;2023-08-20T12:24:09;100019.53;;;33.03;100.00
49723;BME280;43484;43.608;1.458;2023-08-20T12:26:37;100017.50;;;33.36;100.00
49723;BME280;43484;43.608;1.458;2023-08-20T12:29:04;100017.94;;;33.44;99.10
49723;BME280;43484;43.608;1.458;2023-08-20T12:31:31;100022.63;;;33.39;98.68
49723;BME280;43484;43.608;1.458;2023-08-20T12:33:58;100017.84;;;33.46;97.05
49723;BME280;43484;43.608;1.458;2023-08-20T12:36:25;100015.47;;;33.55;95.64
49723;BME280;43484;43.608;1.458;2023-08-20T12:38:52;100008.06;;;33.46;95.18
49723;BME280;43484;43.608;1.458;2023-08-20T12:41:19;100013.56;;;33.43;94.62
49723;BME280;43484;43.608;1.458;2023-08-20T12:43:46;99996.91;;;33.40;96.71
49723;BME280;43484;43.608;1.458;2023-08-20T12:46:12;100005.75;;;33.40;95.74
49723;BME280;43484;43.608;1.458;2023-08-20T12:48:40;100007.50;;;33.69;91.50
49723;BME280;43484;43.608;1.458;2023-08-20T12:51:07;100001.97;;;33.58;92.56
49723;BME280;43484;43.608;1.458;2023-08-20T12:53:34;99998.38;;;33.45;92.90
49723;BME280;43484;43.608;1.458;2023-08-20T12:56:05;100009.22;;;33.42;92.40
49723;BME280;43484;43.608;1.458;2023-08-20T12:58:32;100003.63;;;33.61;89.87
49723;BME280;43484;43.608;1.458;2023-08-20T13:00:58;100001.69;;;33.91;86.38
49723;BME280;43484;43.608;1.458;2023-08-20T13:03:25;99998.84;;;33.94;84.20
49723;BME280;43484;43.608;1.458;2023-08-20T13:05:54;99993.72;;;33.77;83.89